FW4331 Weather Reports


Display with metric or nautical units.
time (UTC)temp
F
wind
direction
speed
MPH
gust
MPH
rain 1hr
in
rain 24hr
in
rain mn
in
humidity
%
barometer
mb
20200930055031 53 356 0.0 4.0 0.05 0.77 0.11 73 1002.6
20200930054659 53 184 1.0 3.0 0.04 0.76 0.10 73 1002.3
20200930054027 53 297 0.0 5.0 0.05 0.76 0.10 73 1001.9
20200930053534 53 29 1.0 6.0 0.04 0.75 0.09 73 1001.6
20200930053053 53 309 1.0 7.0 0.05 0.75 0.09 73 1001.6
20200930052524 53 302 2.0 10.0 0.04 0.74 0.08 73 1001.3
20200930052030 53 359 3.0 10.0 0.05 0.74 0.08 73 1000.9
20200930051549 53 321 6.0 10.0 0.05 0.73 0.07 73 1001.0
20200930051032 53 49 3.0 8.0 0.05 0.73 0.07 73 1001.1
20200930050528 53 64 4.0 8.0 0.06 0.73 0.07 73 1001.1
20200930050054 53 22 3.0 9.0 0.07 0.73 0.07 73 1001.4
20200930045540 53 35 2.0 9.0 0.07 0.72 0.06 73 1001.3
20200930045019 53 30 4.0 9.0 0.08 0.72 0.06 73 1001.8
20200930044541 53 12 2.0 6.0 0.09 0.72 0.06 73 1002.3
20200930044018 53 25 2.0 5.0 0.09 0.71 0.05 72 1002.7
20200930043537 53 263 1.0 6.0 0.11 0.71 0.05 72 1002.9
20200930043106 53 46 3.0 7.0 0.12 0.70 0.04 72 1003.0
20200930042511 53 333 3.0 7.0 0.13 0.70 0.04 72 1003.3
20200930042018 53 32 4.0 7.0 0.14 0.69 0.03 72 1003.5
20200930041522 53 41 2.0 6.0 0.14 0.68 0.02 72 1003.7
20200930041011 53 308 1.0 5.0 0.14 0.67 0.01 72 1004.1
20200930040508 53 34 2.0 6.0 0.15 0.67 0.01 72 1004.3
20200930040237 54 358 2.0 6.0 0.14 0.66 0.66 72 1004.3
20200930035636 54 321 0.0 4.0 0.14 0.65 0.65 72 1004.4
20200930035108 54 35 1.0 4.0 0.13 0.64 0.64 72 1004.3
20200930034733 54 4 1.0 5.0 0.12 0.63 0.63 72 1004.4
20200930034056 54 340 0.0 5.0 0.11 0.62 0.62 72 1004.6
20200930033555 54 41 0.0 3.0 0.09 0.60 0.60 72 1005.4
20200930033130 54 317 0.0 3.0 0.08 0.57 0.57 72 1005.6
20200930032609 54 29 0.0 7.0 0.07 0.56 0.56 72 1005.7
20200930032104 54 359 1.0 7.0 0.07 0.55 0.55 71 1005.6
20200930031730 54 350 1.0 6.0 0.07 0.54 0.54 71 1005.5
20200930031102 54 330 2.0 7.0 0.07 0.53 0.53 71 1005.6
20200930030553 54 332 2.0 11.0 0.07 0.52 0.52 71 1005.7
20200930030108 54 28 2.0 13.0 0.07 0.52 0.52 71 1005.6
20200930025548 54 291 4.0 13.0 0.07 0.51 0.51 71 1005.5
20200930025051 54 29 5.0 9.0 0.08 0.51 0.51 71 1005.4
20200930024633 54 323 2.0 8.0 0.09 0.51 0.51 71 1005.4
20200930024053 54 316 0.0 7.0 0.10 0.51 0.51 72 1005.5
20200930023558 54 21 3.0 7.0 0.12 0.51 0.51 71 1005.4
20200930023104 54 307 2.0 13.0 0.13 0.50 0.50 71 1005.6
20200930022046 54 310 3.0 10.0 0.13 0.48 0.48 71 1005.4
20200930021644 54 342 5.0 10.0 0.13 0.47 0.47 71 1005.1
20200930021041 54 27 3.0 12.0 0.13 0.46 0.46 71 1005.6
20200930020554 54 15 5.0 13.0 0.13 0.45 0.45 71 1006.0
20200930020253 54 346 1.0 7.0 0.13 0.44 0.44 71 1006.3
20200930015542 54 96 1.0 14.0 0.13 0.43 0.43 71 1006.3
20200930015104 54 325 8.0 14.0 0.13 0.43 0.43 71 1006.2
20200930014707 54 347 3.0 9.0 0.13 0.42 0.42 72 1006.2
20200930014044 54 326 3.0 9.0 0.12 0.41 0.41 72 1006.2
20200930013607 54 20 5.0 9.0 0.11 0.39 0.39 72 1006.1
20200930013053 54 319 2.0 7.0 0.10 0.37 0.37 72 1006.3
20200930012535 54 239 2.0 8.0 0.10 0.36 0.36 72 1006.4
20200930012039 54 289 2.0 13.0 0.10 0.35 0.35 72 1006.5
20200930011634 54 286 7.0 12.0 0.10 0.33 0.33 71 1006.3
20200930011039 54 212 1.0 9.0 0.12 0.33 0.33 71 1006.6
20200930010533 54 317 3.0 13.0 0.13 0.32 0.32 71 1006.3
20200930010120 54 316 6.0 16.0 0.17 0.31 0.31 71 1006.1
20200930005531 54 30 7.0 17.0 0.22 0.30 0.30 71 1005.7
20200930005030 54 20 7.0 17.0 0.24 0.30 0.30 71 1005.5
20200930004536 54 19 7.0 15.0 0.25 0.28 0.28 71 1005.7
20200930003551 54 331 6.0 17.0 0.26 0.28 0.28 72 1005.7
20200930003134 54 19 7.0 17.0 0.25 0.27 0.27 71 1005.6
20200930002527 54 297 7.0 16.0 0.25 0.26 0.26 71 1005.7
20200930002023 55 32 9.0 17.0 0.25 0.25 0.25 71 1005.8
20200930001531 55 335 4.0 17.0 0.23 0.23 0.23 71 1005.9
20200930001025 55 58 7.0 17.0 0.21 0.21 0.21 71 1006.0
20200930000537 55 340 6.0 13.0 0.18 0.18 0.18 71 1006.3
20200930000118 56 48 2.0 10.0 0.13 0.13 0.13 71 1006.9
20200929235515 56 251 3.0 11.0 0.08 0.08 0.08 71 1007.0
20200929235039 56 57 6.0 11.0 0.06 0.06 0.06 70 1006.0
20200929234548 56 6 4.0 16.0 0.04 0.04 0.04 70 1005.7
20200929234014 56 15 7.0 17.0 0.03 0.03 0.03 69 1005.6
20200929233511 57 1 8.0 17.0 0.02 0.02 0.02 68 1005.6
20200929233019 57 302 4.0 17.0 0.02 0.02 0.02 68 1005.8
20200929232510 58 41 6.0 18.0 0.01 0.01 0.01 67 1005.8
20200929232014 58 4 11.0 18.0 0.00 0.00 0.00 66 1005.9
20200929231517 59 4 4.0 11.0 0.00 0.00 0.00 66 1006.1
20200929231111 59 19 4.0 22.0 0.00 0.00 0.00 65 1006.3
20200929230607 60 8 11.0 22.0 0.00 0.00 0.00 65 1006.0
20200929230131 60 359 5.0 16.0 0.00 0.00 0.00 66 1006.1
20200929225601 60 330 7.0 16.0 0.00 0.00 0.00 66 1006.2
20200929225103 60 285 2.0 22.0 0.00 0.00 0.00 66 1006.0
20200929224635 60 348 7.0 22.0 0.00 0.00 0.00 66 1005.7
20200929224105 60 349 10.0 21.0 0.00 0.00 0.00 66 1005.6
20200929223612 61 19 11.0 19.0 0.00 0.00 0.00 66 1005.8
20200929223153 61 359 8.0 16.0 0.00 0.00 0.00 66 1005.9
20200929222550 61 25 7.0 14.0 0.00 0.00 0.00 66 1005.7
20200929222048 61 43 7.0 18.0 0.00 0.00 0.00 66 1005.8
20200929221645 62 21 10.0 19.0 0.00 0.00 0.00 66 1005.6
20200929221044 62 44 11.0 19.0 0.00 0.00 0.00 65 1005.4
20200929220602 62 21 5.0 14.0 0.00 0.00 0.00 66 1005.3
20200929220122 62 36 7.0 12.0 0.00 0.00 0.00 65 1005.4
20200929215550 62 319 5.0 12.0 0.00 0.00 0.00 65 1005.2
20200929215039 62 30 6.0 15.0 0.00 0.00 0.00 65 1005.1
20200929214621 63 25 7.0 15.0 0.00 0.00 0.00 65 1005.1
20200929214110 63 30 6.0 18.0 0.00 0.00 0.00 64 1005.3
20200929213552 63 334 9.0 18.0 0.00 0.00 0.00 64 1005.3
20200929213052 63 13 7.0 14.0 0.00 0.00 0.00 63 1005.4
20200929212538 63 20 6.0 14.0 0.00 0.00 0.00 64 1005.3
20200929212035 63 30 4.0 10.0 0.00 0.00 0.00 63 1005.2
20200929211549 63 38 5.0 12.0 0.00 0.00 0.00 63 1005.1
20200929211036 63 350 5.0 12.0 0.00 0.00 0.00 63 1005.2
20200929210552 63 349 5.0 15.0 0.00 0.00 0.00 64 1005.3
20200929210112 63 23 8.0 15.0 0.00 0.00 0.00 63 1005.4
20200929205532 63 322 6.0 15.0 0.00 0.00 0.00 63 1005.3
20200929205025 63 27 8.0 14.0 0.00 0.00 0.00 63 1005.4
20200929204601 63 318 4.0 15.0 0.00 0.00 0.00 64 1005.6
20200929204023 63 12 7.0 15.0 0.00 0.00 0.00 63 1005.7
20200929203533 63 304 3.0 9.0 0.00 0.00 0.00 64 1005.5
20200929203043 63 77 5.0 13.0 0.00 0.00 0.00 63 1005.5
20200929202537 63 65 5.0 16.0 0.00 0.00 0.00 63 1005.6
20200929202023 64 1 8.0 16.0 0.00 0.00 0.00 63 1005.7
20200929201555 64 25 5.0 13.0 0.00 0.00 0.00 64 1005.7
20200929201018 64 7 7.0 13.0 0.00 0.00 0.00 63 1005.8
20200929200514 64 304 4.0 17.0 0.00 0.00 0.00 64 1005.9
20200929200030 64 289 7.0 19.0 0.00 0.00 0.00 63 1006.0
20200929195512 64 58 4.0 15.0 0.00 0.00 0.00 64 1006.1
20200929195022 65 314 6.0 16.0 0.00 0.00 0.00 63 1006.0
20200929194540 65 295 7.0 16.0 0.00 0.00 0.00 63 1006.1
20200929194011 65 4 5.0 13.0 0.00 0.00 0.00 64 1006.2
20200929193508 64 360 5.0 12.0 0.00 0.00 0.00 64 1006.2
20200929193031 64 22 5.0 12.0 0.00 0.00 0.00 65 1006.1
20200929192508 64 309 5.0 14.0 0.00 0.00 0.00 65 1006.4
20200929192010 65 7 7.0 15.0 0.00 0.00 0.00 64 1006.2
20200929191501 65 354 4.0 12.0 0.00 0.00 0.00 64 1006.3
20200929191103 66 44 4.0 12.0 0.00 0.00 0.00 63 1006.5
20200929190601 67 26 4.0 10.0 0.00 0.00 0.00 62 1006.6
20200929190220 67 330 3.0 10.0 0.00 0.00 0.00 63 1006.6
20200929185558 67 336 4.0 11.0 0.00 0.00 0.00 62 1006.4
20200929185109 67 335 4.0 14.0 0.00 0.00 0.00 61 1006.3
20200929184632 67 340 7.0 14.0 0.00 0.00 0.00 61 1006.2
20200929184055 68 20 4.0 11.0 0.00 0.00 0.00 62 1006.5
20200929183559 68 341 4.0 12.0 0.00 0.00 0.00 62 1006.4
20200929183133 68 18 4.0 12.0 0.00 0.00 0.00 62 1006.3
20200929182555 68 21 6.0 12.0 0.00 0.00 0.00 61 1006.4
20200929182051 68 321 5.0 14.0 0.00 0.00 0.00 62 1006.5
20200929181743 68 44 8.0 14.0 0.00 0.00 0.00 60 1006.6
20200929181050 68 36 6.0 13.0 0.00 0.00 0.00 61 1006.7
20200929180550 68 335 4.0 13.0 0.00 0.00 0.00 63 1006.8
20200929180147 68 12 5.0 10.0 0.00 0.00 0.00 63 1006.8
20200929175558 68 44 4.0 10.0 0.00 0.00 0.00 63 1007.0
20200929175046 69 15 4.0 10.0 0.00 0.00 0.00 62 1007.0
20200929174653 69 39 4.0 11.0 0.00 0.00 0.00 62 1007.0
20200929174043 69 75 5.0 13.0 0.00 0.00 0.00 62 1007.1
20200929173544 69 319 7.0 14.0 0.00 0.00 0.00 62 1007.2
20200929173108 70 352 4.0 12.0 0.00 0.00 0.00 63 1007.3
20200929172544 70 9 5.0 12.0 0.00 0.00 0.00 63 1007.3
20200929172037 70 311 4.0 13.0 0.00 0.00 0.00 62 1007.5
20200929171548 72 359 7.0 13.0 0.00 0.00 0.00 63 1007.5
20200929171043 72 288 0.0 3.0 0.00 0.00 0.00 65 1007.6
20200929170537 73 290 0.0 0.0 0.00 0.00 0.00 65 1007.6
20200929170104 74 319 0.0 0.0 0.00 0.00 0.00 63 1007.6
20200929165534 74 320 0.0 0.0 0.00 0.00 0.00 61 1007.6
20200929165035 75 323 0.0 2.0 0.00 0.00 0.00 60 1007.6
20200929164554 75 323 0.0 3.0 0.00 0.00 0.00 59 1007.7
20200929164033 76 328 1.0 3.0 0.00 0.00 0.00 57 1007.9
20200929163531 76 274 0.0 2.0 0.00 0.00 0.00 57 1007.7
20200929163200 76 336 0.0 5.0 0.00 0.00 0.00 58 1007.9
20200929162530 76 262 2.0 5.0 0.00 0.00 0.00 58 1007.9
20200929162029 75 301 0.0 5.0 0.00 0.00 0.00 58 1008.0
20200929161540 75 256 2.0 6.0 0.00 0.00 0.00 58 1007.9
20200929161028 76 289 2.0 6.0 0.00 0.00 0.00 57 1007.9
20200929160526 76 265 0.0 6.0 0.00 0.00 0.00 57 1007.9
20200929160140 76 245 3.0 6.0 0.00 0.00 0.00 58 1008.0
20200929155527 75 162 1.0 4.0 0.00 0.00 0.00 59 1008.1
20200929155023 75 254 2.0 4.0 0.00 0.00 0.00 60 1008.2
20200929154614 74 188 2.0 5.0 0.00 0.00 0.00 59 1008.2
20200929154020 74 195 2.0 7.0 0.00 0.00 0.00 60 1008.4
20200929153553 73 193 3.0 7.0 0.00 0.00 0.00 61 1008.4
20200929153045 73 276 2.0 5.0 0.00 0.00 0.00 61 1008.5
20200929152022 72 276 2.0 5.0 0.00 0.00 0.00 63 1008.6
20200929151525 72 249 2.0 4.0 0.00 0.00 0.00 63 1008.8
20200929151015 73 288 1.0 3.0 0.00 0.00 0.00 62 1008.7
20200929150529 73 289 1.0 3.0 0.00 0.00 0.00 62 1008.8
20200929150021 73 274 1.0 4.0 0.00 0.00 0.00 63 1008.9
20200929145512 73 266 2.0 4.0 0.00 0.00 0.00 62 1008.9
20200929145018 73 280 2.0 5.0 0.00 0.00 0.00 62 1008.7
20200929144516 72 275 1.0 5.0 0.00 0.00 0.00 63 1008.7
20200929144022 72 278 2.0 5.0 0.00 0.00 0.00 63 1008.7
20200929143518 72 266 2.0 4.0 0.00 0.00 0.00 63 1008.8
20200929143020 72 250 1.0 4.0 0.00 0.00 0.00 64 1008.8
20200929142515 72 279 2.0 5.0 0.00 0.00 0.00 64 1008.8
20200929142016 72 269 3.0 5.0 0.00 0.00 0.00 64 1008.9
20200929141514 71 254 2.0 5.0 0.00 0.00 0.00 64 1008.9
20200929141005 71 262 2.0 8.0 0.00 0.00 0.00 64 1008.9
20200929140509 71 252 4.0 8.0 0.00 0.00 0.00 64 1008.9
20200929140231 71 221 3.0 6.0 0.00 0.00 0.00 64 1008.8
20200929140004 71 274 3.0 6.0 0.00 0.00 0.00 64 1008.8
20200929135600 71 286 2.0 5.0 0.00 0.00 0.00 64 1008.8
20200929135107 72 265 0.0 4.0 0.00 0.00 0.00 65 1008.7
20200929134629 71 259 1.0 6.0 0.00 0.00 0.00 65 1008.8
20200929134057 71 218 3.0 7.0 0.00 0.00 0.00 64 1008.9
20200929133558 71 238 3.0 11.0 0.00 0.00 0.00 64 1009.0
20200929133151 71 200 3.0 11.0 0.00 0.00 0.00 64 1008.9
20200929132558 71 215 4.0 8.0 0.00 0.00 0.00 64 1008.9
20200929132058 71 317 3.0 7.0 0.00 0.00 0.00 65 1008.8
20200929131734 71 246 2.0 5.0 0.00 0.00 0.00 67 1008.9
20200929131050 70 216 2.0 5.0 0.00 0.00 0.00 67 1008.9
20200929130605 70 206 2.0 5.0 0.00 0.00 0.00 67 1008.9
20200929130110 70 230 1.0 4.0 0.00 0.00 0.00 68 1008.9
20200929125547 69 283 2.0 4.0 0.00 0.00 0.00 68 1008.9
20200929125046 69 212 3.0 4.0 0.00 0.00 0.00 68 1008.9
20200929124622 69 191 1.0 5.0 0.00 0.00 0.00 69 1008.9
20200929124046 69 226 3.0 5.0 0.00 0.00 0.00 69 1008.9
20200929123603 68 195 2.0 5.0 0.00 0.00 0.00 69 1009.0
20200929123158 68 267 2.0 5.0 0.00 0.00 0.00 70 1008.8
20200929122543 68 232 1.0 6.0 0.00 0.00 0.00 70 1008.9
20200929122045 68 243 2.0 6.0 0.00 0.00 0.00 70 1009.1
20200929121640 68 213 1.0 5.0 0.00 0.00 0.00 71 1008.9
20200929121049 68 159 1.0 5.0 0.00 0.00 0.00 71 1008.8
20200929120556 67 151 2.0 5.0 0.00 0.00 0.00 71 1008.7
20200929120135 67 177 1.0 4.0 0.00 0.00 0.00 71 1008.7
20200929115553 67 234 2.0 4.0 0.00 0.00 0.00 71 1008.8
20200929115045 67 253 1.0 4.0 0.00 0.00 0.00 71 1008.8
20200929114603 67 179 2.0 3.0 0.00 0.00 0.00 71 1008.6
20200929114040 67 187 1.0 3.0 0.00 0.00 0.00 72 1008.5
20200929113539 66 209 1.0 4.0 0.00 0.00 0.00 72 1008.5
20200929113046 66 221 1.0 5.0 0.00 0.00 0.00 72 1008.3
20200929112542 66 184 2.0 5.0 0.00 0.00 0.00 72 1008.3
20200929112049 66 182 1.0 6.0 0.00 0.00 0.00 72 1008.3
20200929111611 66 176 1.0 5.0 0.00 0.00 0.00 72 1008.2
20200929111050 66 139 2.0 5.0 0.00 0.00 0.00 72 1008.2
20200929110531 66 148 1.0 5.0 0.00 0.00 0.00 72 1008.3
20200929110127 66 197 2.0 5.0 0.00 0.00 0.00 72 1008.3
20200929105535 66 209 2.0 4.0 0.00 0.00 0.00 72 1008.2
20200929105034 66 191 2.0 4.0 0.00 0.00 0.00 72 1008.2
20200929104532 66 170 1.0 4.0 0.00 0.00 0.00 72 1008.0
20200929104040 66 151 1.0 4.0 0.00 0.00 0.00 72 1008.1
20200929103539 66 211 0.0 3.0 0.00 0.00 0.00 72 1008.0
20200929103053 66 192 1.0 3.0 0.00 0.00 0.00 72 1007.9
20200929102535 66 200 0.0 2.0 0.00 0.00 0.00 72 1008.0
20200929102035 66 162 0.0 2.0 0.00 0.00 0.00 71 1007.9
20200929101604 66 144 0.0 2.0 0.00 0.00 0.00 71 1008.0
20200929101017 66 187 1.0 2.0 0.00 0.00 0.00 71 1008.2
20200929100529 66 266 0.0 2.0 0.00 0.00 0.00 71 1008.0
20200929100020 66 195 1.0 2.0 0.00 0.00 0.00 71 1007.7
20200929095518 66 157 0.0 2.0 0.00 0.00 0.00 71 1007.8
20200929095018 67 236 0.0 3.0 0.00 0.00 0.00 71 1007.7
20200929094525 67 155 1.0 4.0 0.00 0.00 0.00 71 1007.8
20200929094012 67 194 1.0 4.0 0.00 0.00 0.00 71 1007.8
20200929093516 67 188 1.0 6.0 0.00 0.00 0.00 71 1007.7
20200929093027 67 200 2.0 6.0 0.00 0.00 0.00 70 1007.7
20200929092508 67 141 3.0 7.0 0.00 0.00 0.00 70 1007.8
20200929092007 67 141 3.0 7.0 0.00 0.00 0.00 70 1007.7
20200929091526 67 231 3.0 6.0 0.00 0.00 0.00 70 1007.8
20200929091007 67 214 3.0 6.0 0.00 0.00 0.00 70 1007.9
20200929090529 68 210 2.0 5.0 0.00 0.00 0.00 70 1007.8
20200929090024 68 157 3.0 6.0 0.00 0.00 0.00 70 1007.9
20200929085503 68 208 3.0 7.0 0.00 0.00 0.00 70 1007.9
20200929085011 68 229 3.0 7.0 0.00 0.00 0.00 70 1007.8
20200929084645 68 196 2.0 6.0 0.00 0.00 0.00 70 1007.7
20200929084107 68 176 2.0 6.0 0.00 0.00 0.00 70 1007.7
20200929083608 68 207 2.0 5.0 0.00 0.00 0.00 69 1007.9
20200929083231 68 194 2.0 4.0 0.00 0.00 0.00 69 1007.8
20200929082607 68 163 2.0 4.0 0.00 0.00 0.00 69 1007.8
20200929082059 68 223 2.0 4.0 0.00 0.00 0.00 69 1007.8
20200929081658 68 222 2.0 6.0 0.00 0.00 0.00 69 1007.8
20200929081054 68 227 2.0 5.0 0.00 0.00 0.00 69 1007.8
20200929080115 69 242 2.0 6.0 0.00 0.00 0.00 69 1007.7
20200929075552 69 243 1.0 7.0 0.00 0.00 0.00 69 1007.7
20200929075058 69 213 1.0 7.0 0.00 0.00 0.00 69 1007.9
20200929074631 69 190 1.0 9.0 0.00 0.00 0.00 69 1007.8
20200929074059 69 221 3.0 9.0 0.00 0.00 0.00 69 1007.9
20200929073623 69 161 2.0 6.0 0.00 0.00 0.00 69 1007.9
20200929073213 69 224 3.0 8.0 0.00 0.00 0.00 69 1007.9
20200929072547 69 191 4.0 7.0 0.00 0.00 0.00 69 1007.9
20200929072044 69 205 3.0 6.0 0.00 0.00 0.00 69 1007.9
20200929071635 69 200 2.0 9.0 0.00 0.00 0.00 69 1008.0
20200929071050 69 200 4.0 9.0 0.00 0.00 0.00 69 1008.0
20200929070548 69 183 4.0 8.0 0.00 0.00 0.00 69 1008.0
20200929070141 69 224 4.0 8.0 0.00 0.00 0.00 69 1008.1
20200929065539 69 185 4.0 11.0 0.00 0.00 0.00 69 1008.2
20200929065038 69 225 5.0 10.0 0.00 0.00 0.00 69 1008.3
20200929064629 69 205 3.0 7.0 0.00 0.00 0.00 69 1008.4
20200929064037 69 185 3.0 6.0 0.00 0.00 0.00 69 1008.5
20200929063537 69 202 3.0 8.0 0.00 0.00 0.00 69 1008.4
20200929063056 69 179 3.0 8.0 0.00 0.00 0.00 69 1008.3
20200929062534 69 131 3.0 7.0 0.00 0.00 0.00 69 1008.4
20200929062039 70 228 3.0 7.0 0.00 0.00 0.00 69 1008.5
20200929061607 70 156 4.0 7.0 0.00 0.00 0.00 69 1008.4
20200929061047 70 181 3.0 8.0 0.00 0.00 0.00 69 1008.4
20200929060550 70 167 4.0 8.0 0.00 0.00 0.00 69 1008.4
20200929060111 70 205 2.0 8.0 0.00 0.00 0.00 69 1008.4
20200929055531 70 181 3.0 8.0 0.00 0.00 0.00 69 1008.5